createdAt,value
2023-03-18T00:01:08.766Z,21.25
2023-03-18T00:02:52.761Z,14.43
2023-03-18T00:04:25.261Z,14.77
2023-03-18T00:06:11.859Z,17.17
2023-03-18T00:07:45.359Z,14.13
2023-03-18T00:09:18.526Z,18.80
2023-03-18T00:10:51.655Z,17.25
2023-03-18T00:12:24.960Z,19.92
2023-03-18T00:13:58.165Z,16.95
2023-03-18T00:15:30.671Z,15.27
2023-03-18T00:17:04.292Z,14.70
2023-03-18T00:18:38.074Z,15.70
2023-03-18T00:20:13.128Z,17.77
2023-03-18T00:21:47.729Z,14.27
2023-03-18T00:23:22.571Z,13.13
2023-03-18T00:24:56.005Z,14.15
2023-03-18T00:26:29.949Z,21.98
2023-03-18T00:28:02.681Z,17.33
2023-03-18T00:29:36.419Z,17.83
2023-03-18T00:31:14.089Z,18.63
2023-03-18T00:32:46.808Z,18.35
2023-03-18T00:34:21.421Z,17.00
2023-03-18T00:35:55.044Z,23.17
2023-03-18T00:37:33.577Z,23.55
2023-03-18T00:39:07.563Z,27.00
2023-03-18T00:40:53.603Z,24.55
2023-03-18T00:42:26.984Z,21.60
2023-03-18T00:44:00.598Z,27.00
2023-03-18T00:45:37.217Z,22.42
2023-03-18T00:47:10.563Z,26.05
2023-03-18T00:48:44.234Z,24.63
2023-03-18T00:50:18.247Z,28.95
2023-03-18T00:51:52.065Z,25.58
2023-03-18T00:53:27.048Z,23.48
2023-03-18T00:55:00.880Z,24.40
2023-03-18T00:56:37.761Z,22.50
2023-03-18T00:58:11.594Z,27.33
2023-03-18T00:59:46.391Z,32.25
2023-03-18T01:01:19.820Z,27.17
2023-03-18T01:02:53.701Z,26.48
2023-03-18T01:04:28.254Z,29.20
2023-03-18T01:06:02.462Z,28.73
2023-03-18T01:07:36.635Z,38.22
2023-03-18T01:09:11.913Z,32.83
2023-03-18T01:10:45.883Z,35.75
2023-03-18T01:12:19.232Z,30.33
2023-03-18T01:13:53.125Z,30.60
2023-03-18T01:15:25.590Z,28.70
2023-03-18T01:16:58.944Z,26.65
2023-03-18T01:18:31.571Z,22.70
2023-03-18T01:20:05.036Z,16.95
2023-03-18T01:21:38.981Z,14.18
2023-03-18T01:23:13.386Z,18.88
2023-03-18T01:24:50.028Z,16.50
2023-03-18T01:26:26.365Z,19.08
2023-03-18T01:28:01.372Z,16.85
2023-03-18T01:29:35.391Z,15.23
2023-03-18T01:31:08.654Z,11.38
2023-03-18T01:32:44.008Z,14.15
2023-03-18T01:34:18.554Z,14.68
2023-03-18T01:35:58.010Z,13.48
2023-03-18T01:37:33.710Z,12.95
2023-03-18T01:39:17.715Z,13.98
2023-03-18T01:40:54.663Z,12.70
2023-03-18T01:42:29.052Z,18.50
2023-03-18T01:44:04.397Z,16.33
2023-03-18T01:45:38.862Z,13.93
2023-03-18T01:47:12.219Z,13.70
2023-03-18T01:48:48.736Z,15.18
2023-03-18T01:50:26.323Z,17.67
2023-03-18T01:52:08.802Z,15.57
2023-03-18T01:53:47.578Z,21.73
2023-03-18T01:55:25.569Z,16.48
2023-03-18T01:57:00.979Z,17.75
2023-03-18T01:58:38.534Z,19.40
2023-03-18T02:00:13.492Z,20.45
2023-03-18T02:01:55.062Z,17.35
2023-03-18T02:03:28.820Z,16.45
2023-03-18T02:05:07.223Z,15.40
2023-03-18T02:06:39.895Z,30.50
2023-03-18T02:08:13.276Z,23.20
2023-03-18T02:09:47.544Z,24.08
2023-03-18T02:13:05.390Z,26.98
2023-03-18T02:14:42.702Z,22.65
2023-03-18T02:16:19.765Z,17.63
2023-03-18T02:17:58.343Z,16.48
2023-03-18T02:19:47.787Z,17.30
2023-03-18T02:21:42.299Z,14.25
2023-03-18T02:23:29.533Z,17.38
2023-03-18T02:25:17.207Z,14.57
2023-03-18T02:26:57.547Z,19.27
2023-03-18T02:28:39.046Z,18.40
2023-03-18T02:30:15.906Z,18.75
2023-03-18T02:31:52.166Z,19.08
2023-03-18T02:33:34.848Z,16.13
2023-03-18T02:35:11.076Z,31.85
2023-03-18T02:36:46.021Z,24.70
2023-03-18T02:38:19.564Z,21.63
2023-03-18T02:39:53.317Z,31.30
2023-03-18T02:41:32.540Z,22.73
2023-03-18T02:43:25.864Z,17.42
2023-03-18T02:45:04.111Z,22.20
2023-03-18T02:46:55.639Z,18.95
2023-03-18T02:48:33.393Z,16.75
2023-03-18T02:50:07.115Z,14.23
2023-03-18T02:51:40.515Z,16.17
2023-03-18T02:53:14.364Z,16.10
2023-03-18T02:54:49.284Z,16.35
2023-03-18T02:56:23.637Z,16.92
2023-03-18T02:57:56.273Z,16.42
2023-03-18T02:59:32.722Z,24.88
2023-03-18T03:01:08.557Z,38.88
2023-03-18T03:02:42.300Z,39.33
2023-03-18T03:04:17.316Z,28.45
2023-03-18T03:05:49.911Z,24.33
2023-03-18T03:07:27.713Z,29.58
2023-03-18T03:09:02.852Z,29.17
2023-03-18T03:10:36.616Z,36.45
2023-03-18T03:12:10.436Z,23.17
2023-03-18T03:13:48.876Z,24.98
2023-03-18T03:15:22.118Z,21.60
2023-03-18T03:17:02.758Z,24.98
2023-03-18T03:18:36.950Z,21.35
2023-03-18T03:20:10.550Z,27.27
2023-03-18T03:21:43.910Z,25.75
2023-03-18T03:23:17.743Z,30.20
2023-03-18T03:24:51.181Z,38.53
2023-03-18T03:26:24.946Z,30.67
2023-03-18T03:27:57.256Z,31.80
2023-03-18T03:29:31.126Z,35.40
2023-03-18T03:31:05.128Z,37.67
2023-03-18T03:32:39.856Z,31.73
2023-03-18T03:34:13.330Z,31.20
2023-03-18T03:35:45.589Z,41.10
2023-03-18T03:37:19.306Z,38.25
2023-03-18T03:38:54.062Z,35.63
2023-03-18T03:40:27.783Z,33.53
2023-03-18T03:42:01.003Z,30.50
2023-03-18T03:43:35.119Z,42.25
2023-03-18T03:45:11.559Z,47.55
2023-03-18T03:46:44.721Z,37.70
2023-03-18T03:48:19.297Z,28.95
2023-03-18T03:49:52.560Z,45.03
2023-03-18T03:51:26.344Z,41.28
2023-03-18T03:52:58.770Z,33.80
2023-03-18T03:54:34.099Z,38.88
2023-03-18T03:56:09.393Z,58.28
2023-03-18T03:57:42.118Z,77.38
2023-03-18T03:59:15.395Z,39.35
2023-03-18T04:01:08.830Z,77.90
2023-03-18T04:02:42.291Z,45.47
2023-03-18T04:04:18.834Z,46.72
2023-03-18T04:05:51.176Z,55.80
2023-03-18T04:07:27.888Z,81.05
2023-03-18T04:09:01.338Z,74.28
2023-03-18T04:10:36.648Z,47.72
2023-03-18T04:12:12.061Z,32.80
2023-03-18T04:13:45.761Z,33.10
2023-03-18T04:15:21.506Z,45.03
2023-03-18T04:16:58.210Z,63.55
2023-03-18T04:18:31.935Z,48.10
2023-03-18T04:20:06.374Z,44.05
2023-03-18T04:21:40.714Z,48.80
2023-03-18T04:23:13.061Z,63.60
2023-03-18T04:24:47.032Z,88.75
2023-03-18T04:26:20.580Z,42.03
2023-03-18T04:27:54.726Z,30.73
2023-03-18T04:29:28.115Z,41.17
2023-03-18T04:31:01.416Z,97.45
2023-03-18T04:32:34.106Z,36.45
2023-03-18T04:34:08.360Z,35.95
2023-03-18T04:35:43.700Z,52.40
2023-03-18T04:37:20.187Z,71.20
2023-03-18T04:38:58.260Z,80.57
2023-03-18T04:40:31.629Z,123.30
2023-03-18T04:42:06.557Z,85.03
2023-03-18T04:43:39.692Z,85.05
2023-03-18T04:45:14.177Z,91.82
2023-03-18T04:46:47.574Z,41.15
2023-03-18T04:48:20.033Z,30.90
2023-03-18T04:49:53.086Z,51.80
2023-03-18T04:51:28.607Z,39.63
2023-03-18T04:53:03.571Z,45.10
2023-03-18T04:54:39.720Z,77.65
2023-03-18T04:56:13.810Z,140.15
2023-03-18T04:57:53.690Z,45.45
2023-03-18T04:59:29.405Z,105.55
2023-03-18T05:01:04.916Z,64.70
2023-03-18T05:02:43.187Z,41.78
2023-03-18T05:04:16.980Z,99.57
2023-03-18T05:05:55.343Z,102.55
2023-03-18T05:07:36.947Z,108.28
2023-03-18T05:09:15.676Z,52.78
2023-03-18T05:10:49.920Z,53.90
2023-03-18T05:12:23.213Z,39.85
2023-03-18T05:13:57.555Z,48.17
2023-03-18T05:15:31.906Z,51.53
2023-03-18T05:17:04.584Z,79.70
2023-03-18T05:18:41.409Z,75.85
2023-03-18T05:20:15.158Z,72.63
2023-03-18T05:21:51.068Z,41.22
2023-03-18T05:23:27.115Z,34.53
2023-03-18T05:25:03.103Z,51.30
2023-03-18T05:26:37.603Z,64.80
2023-03-18T05:28:11.427Z,60.38
2023-03-18T05:29:58.853Z,72.30
2023-03-18T05:31:40.041Z,55.85
2023-03-18T05:33:12.505Z,71.22
2023-03-18T05:34:52.900Z,49.60
2023-03-18T05:36:26.720Z,42.75
2023-03-18T05:38:06.987Z,55.63
2023-03-18T05:39:44.372Z,40.25
2023-03-18T05:41:20.470Z,41.28
2023-03-18T05:42:56.489Z,40.67
2023-03-18T05:44:40.501Z,41.63
2023-03-18T05:46:15.785Z,39.40
2023-03-18T05:47:58.088Z,33.33
2023-03-18T05:49:31.404Z,34.60
2023-03-18T05:51:21.907Z,37.78
2023-03-18T05:52:54.478Z,50.42
2023-03-18T05:54:29.948Z,44.72
2023-03-18T05:56:04.817Z,45.15
2023-03-18T05:57:39.013Z,41.40
2023-03-18T05:59:15.325Z,45.08
2023-03-18T06:00:53.740Z,42.85
2023-03-18T06:02:27.115Z,44.60
2023-03-18T06:04:02.012Z,44.00
2023-03-18T06:05:36.009Z,38.83
2023-03-18T06:07:08.419Z,41.22
2023-03-18T06:08:41.671Z,45.67
2023-03-18T06:10:15.172Z,166.32
2023-03-18T06:11:50.784Z,86.00
2023-03-18T06:13:24.089Z,78.32
2023-03-18T06:14:56.172Z,65.38
2023-03-18T06:16:30.037Z,92.55
2023-03-18T06:18:04.836Z,58.90
2023-03-18T06:19:38.171Z,58.60
2023-03-18T06:21:11.863Z,67.07
2023-03-18T06:22:49.605Z,59.47
2023-03-18T06:24:22.957Z,59.38
2023-03-18T06:25:56.163Z,60.05
2023-03-18T06:27:37.644Z,69.88
2023-03-18T06:29:12.165Z,69.72
2023-03-18T06:30:45.856Z,67.72
2023-03-18T06:32:18.046Z,65.18
2023-03-18T06:33:52.177Z,64.07
2023-03-18T06:35:26.696Z,61.38
2023-03-18T06:37:00.455Z,62.63
2023-03-18T06:38:34.810Z,65.60
2023-03-18T06:40:10.660Z,77.30
2023-03-18T06:41:44.960Z,65.07
2023-03-18T06:43:36.992Z,57.90
2023-03-18T06:45:11.790Z,56.83
2023-03-18T06:46:55.430Z,60.13
2023-03-18T06:48:29.710Z,66.95
2023-03-18T06:50:04.621Z,55.28
2023-03-18T06:51:42.264Z,53.22
2023-03-18T06:53:15.746Z,57.33
2023-03-18T06:54:50.607Z,53.25
2023-03-18T06:56:24.095Z,53.28
2023-03-18T06:58:10.612Z,49.47
2023-03-18T07:00:05.994Z,51.22
2023-03-18T07:01:39.204Z,44.90
2023-03-18T07:03:11.625Z,48.95
2023-03-18T07:04:44.938Z,40.92
2023-03-18T07:06:18.830Z,44.08
2023-03-18T07:07:52.164Z,43.28
2023-03-18T07:09:24.720Z,45.90
2023-03-18T07:11:01.162Z,52.42
2023-03-18T07:12:37.228Z,51.35
2023-03-18T07:14:10.575Z,45.70
2023-03-18T07:15:46.613Z,50.63
2023-03-18T07:17:19.969Z,44.60
2023-03-18T07:18:53.715Z,46.33
2023-03-18T07:20:26.030Z,42.42
2023-03-18T07:21:59.464Z,164.27
2023-03-18T07:23:32.604Z,25.20
2023-03-18T07:25:06.818Z,40.85
2023-03-18T07:26:41.735Z,71.85
2023-03-18T07:28:16.388Z,57.55
2023-03-18T07:29:49.601Z,52.75
2023-03-18T07:31:25.501Z,56.00
2023-03-18T07:32:58.770Z,55.35
2023-03-18T07:34:33.143Z,56.50
2023-03-18T07:36:07.540Z,59.78
2023-03-18T07:37:40.441Z,53.13
2023-03-18T07:39:13.666Z,62.60
2023-03-18T07:40:47.120Z,49.35
2023-03-18T07:42:20.261Z,50.08
2023-03-18T07:43:53.834Z,56.03
2023-03-18T07:45:26.956Z,55.08
2023-03-18T07:47:01.752Z,55.67
2023-03-18T07:48:35.227Z,51.20
2023-03-18T07:50:10.069Z,47.67
2023-03-18T07:51:43.226Z,52.40
2023-03-18T07:53:16.886Z,53.60
2023-03-18T07:54:50.144Z,53.83
2023-03-18T07:56:23.478Z,46.80
2023-03-18T07:57:56.679Z,55.03
2023-03-18T07:59:29.875Z,44.72
2023-03-18T08:01:04.119Z,40.83
2023-03-18T08:02:39.196Z,37.47
2023-03-18T08:04:12.629Z,39.88
2023-03-18T08:05:45.882Z,43.35
2023-03-18T08:07:19.458Z,44.25
2023-03-18T08:08:52.968Z,38.72
2023-03-18T08:10:26.437Z,49.88
2023-03-18T08:12:00.365Z,45.22
2023-03-18T08:13:34.005Z,39.75
2023-03-18T08:15:09.591Z,38.53
2023-03-18T08:16:43.018Z,41.50
2023-03-18T08:18:17.648Z,43.20
2023-03-18T08:19:51.168Z,41.75
2023-03-18T08:21:24.989Z,44.38
2023-03-18T08:22:58.318Z,38.25
2023-03-18T08:24:31.471Z,36.78
2023-03-18T08:26:04.978Z,37.42
2023-03-18T08:27:38.491Z,35.72
2023-03-18T08:29:11.577Z,41.83
2023-03-18T08:30:46.910Z,31.33
2023-03-18T08:32:20.293Z,36.20
2023-03-18T08:33:56.487Z,35.08
2023-03-18T08:35:29.613Z,33.55
2023-03-18T08:37:02.769Z,31.67
2023-03-18T08:38:36.003Z,33.70
2023-03-18T08:40:12.019Z,39.20
2023-03-18T08:41:45.916Z,35.33
2023-03-18T08:43:22.255Z,32.83
2023-03-18T08:44:55.593Z,36.53
2023-03-18T08:46:29.021Z,33.45
2023-03-18T08:48:02.188Z,36.45
2023-03-18T08:49:37.033Z,39.90
2023-03-18T08:51:10.813Z,35.15
2023-03-18T08:52:44.213Z,28.65
2023-03-18T08:54:17.390Z,28.75
2023-03-18T08:55:50.615Z,24.92
2023-03-18T08:57:23.772Z,21.42
2023-03-18T08:58:57.436Z,20.35
2023-03-18T09:00:30.652Z,19.73
2023-03-18T09:02:05.150Z,16.58
2023-03-18T09:03:38.340Z,26.80
2023-03-18T09:05:13.213Z,21.55
2023-03-18T09:06:46.331Z,17.85
2023-03-18T09:08:19.952Z,14.50
2023-03-18T09:09:54.426Z,19.15
2023-03-18T09:11:28.092Z,17.77
2023-03-18T09:13:01.984Z,21.83
2023-03-18T09:14:35.327Z,18.85
2023-03-18T09:16:09.437Z,16.13
2023-03-18T09:17:59.877Z,13.88
2023-03-18T09:19:33.779Z,10.68
2023-03-18T09:21:08.646Z,13.35
2023-03-18T09:22:43.334Z,14.93
2023-03-18T09:24:16.744Z,15.60
2023-03-18T09:25:51.892Z,9.55
2023-03-18T09:27:25.099Z,10.90
2023-03-18T09:28:58.284Z,11.63
2023-03-18T09:30:32.195Z,9.57
2023-03-18T09:32:06.077Z,5.55
2023-03-18T09:33:39.788Z,5.90
2023-03-18T09:35:14.283Z,12.82
2023-03-18T09:36:51.473Z,5.35
2023-03-18T09:38:24.817Z,6.85
2023-03-18T09:39:58.417Z,8.55
2023-03-18T09:41:43.669Z,10.20
2023-03-18T09:43:32.598Z,3.92
2023-03-18T09:45:16.640Z,5.72
2023-03-18T09:47:13.705Z,11.52
2023-03-18T09:49:04.831Z,8.88
2023-03-18T09:50:43.852Z,6.15
2023-03-18T09:52:25.576Z,3.65
2023-03-18T09:54:02.856Z,8.07
2023-03-18T09:55:41.738Z,12.45
2023-03-18T09:57:20.801Z,10.32
2023-03-18T09:58:59.822Z,8.80
2023-03-18T10:00:37.782Z,7.07
2023-03-18T10:02:22.393Z,6.05
2023-03-18T10:04:02.078Z,7.03
2023-03-18T10:05:41.762Z,15.35
2023-03-18T10:07:19.695Z,7.30
2023-03-18T10:09:08.410Z,8.07
2023-03-18T10:10:46.238Z,8.57
2023-03-18T10:12:25.704Z,9.95
2023-03-18T10:14:10.113Z,6.70
2023-03-18T10:15:46.865Z,9.57
2023-03-18T10:17:22.911Z,13.65
2023-03-18T10:18:57.203Z,5.10
2023-03-18T10:20:37.804Z,6.95
2023-03-18T10:22:25.292Z,8.32
2023-03-18T10:24:10.661Z,8.13
2023-03-18T10:25:51.067Z,8.35
2023-03-18T10:27:38.959Z,7.25
2023-03-18T10:29:27.641Z,5.63
2023-03-18T10:31:10.841Z,4.85
2023-03-18T10:32:51.128Z,6.03
2023-03-18T10:34:28.371Z,5.55
2023-03-18T10:36:07.821Z,3.80
2023-03-18T10:37:52.659Z,6.53
2023-03-18T10:39:28.835Z,5.53
2023-03-18T10:41:02.618Z,3.17
2023-03-18T10:42:38.958Z,6.82
2023-03-18T10:44:19.226Z,3.15
2023-03-18T10:46:00.881Z,4.95
2023-03-18T10:47:38.722Z,5.32
2023-03-18T10:49:17.585Z,13.07
2023-03-18T10:50:58.239Z,9.43
2023-03-18T10:52:38.992Z,7.63
2023-03-18T10:54:16.960Z,9.07
2023-03-18T10:55:58.428Z,2.90
2023-03-18T10:57:32.691Z,6.47
2023-03-18T10:59:13.515Z,5.53
2023-03-18T11:00:46.948Z,5.05
2023-03-18T11:02:27.114Z,11.15
2023-03-18T11:04:03.514Z,4.43
2023-03-18T11:05:37.382Z,13.02
2023-03-18T11:07:18.816Z,6.70
2023-03-18T11:09:00.913Z,6.55
2023-03-18T11:10:37.086Z,7.72
2023-03-18T11:12:19.618Z,9.73
2023-03-18T11:13:55.965Z,5.72
2023-03-18T11:15:29.614Z,5.28
2023-03-18T11:17:05.846Z,3.20
2023-03-18T11:18:38.276Z,7.20
2023-03-18T11:20:24.761Z,6.13
2023-03-18T11:22:04.584Z,2.65
2023-03-18T11:23:49.197Z,5.05
2023-03-18T11:25:26.705Z,3.83
2023-03-18T11:26:59.814Z,6.78
2023-03-18T11:28:34.509Z,4.03
2023-03-18T11:30:32.718Z,4.15
2023-03-18T11:32:24.094Z,6.03
2023-03-18T11:33:59.385Z,4.38
2023-03-18T11:35:38.254Z,6.90
2023-03-18T11:37:13.127Z,3.47
2023-03-18T11:38:58.120Z,4.68
2023-03-18T11:40:32.481Z,3.85
2023-03-18T11:42:20.217Z,6.28
2023-03-18T11:44:00.250Z,13.13
2023-03-18T11:45:42.577Z,8.30
2023-03-18T11:47:20.962Z,8.18
2023-03-18T11:48:54.309Z,5.85
2023-03-18T11:50:37.321Z,10.68
2023-03-18T11:52:29.772Z,5.25
2023-03-18T11:54:16.680Z,4.63
2023-03-18T11:55:53.797Z,3.55
2023-03-18T11:57:36.845Z,6.00
2023-03-18T11:59:30.682Z,7.78
2023-03-18T12:01:12.305Z,4.07
2023-03-18T12:03:11.374Z,6.68
2023-03-18T12:05:09.504Z,7.10
2023-03-18T12:06:56.124Z,10.57
2023-03-18T12:08:43.578Z,8.38
2023-03-18T12:10:26.361Z,6.72
2023-03-18T12:12:12.614Z,5.95
2023-03-18T12:13:55.910Z,9.13
2023-03-18T12:15:42.962Z,9.23
2023-03-18T12:17:27.196Z,5.18
2023-03-18T12:19:17.985Z,7.38
2023-03-18T12:20:52.580Z,7.70
2023-03-18T12:22:48.905Z,6.18
2023-03-18T12:24:51.639Z,8.60
2023-03-18T12:26:31.752Z,4.65
2023-03-18T12:28:14.132Z,8.63
2023-03-18T12:30:14.579Z,4.90
2023-03-18T12:32:03.656Z,7.53
2023-03-18T12:33:54.351Z,8.05
2023-03-18T12:35:42.818Z,6.35
2023-03-18T12:37:31.996Z,5.30
2023-03-18T12:39:45.484Z,7.18
2023-03-18T12:41:25.577Z,4.25
2023-03-18T12:43:37.675Z,5.75
2023-03-18T12:45:14.620Z,7.35
2023-03-18T12:46:50.633Z,5.53
2023-03-18T12:48:43.161Z,5.47
2023-03-18T12:50:22.207Z,42.38
2023-03-18T12:52:01.798Z,4.53
2023-03-18T12:53:38.798Z,12.20
2023-03-18T12:55:18.178Z,4.65
2023-03-18T12:56:57.028Z,5.07
2023-03-18T12:58:34.008Z,5.35
2023-03-18T13:00:16.144Z,3.83
2023-03-18T13:01:59.680Z,4.50
2023-03-18T13:03:37.930Z,6.00
2023-03-18T13:05:25.063Z,4.32
2023-03-18T13:07:04.869Z,9.15
2023-03-18T13:08:50.376Z,4.45
2023-03-18T13:10:25.163Z,3.17
2023-03-18T13:12:12.790Z,4.78
2023-03-18T13:13:53.233Z,4.40
2023-03-18T13:15:33.956Z,4.57
2023-03-18T13:17:13.030Z,4.60
2023-03-18T13:18:52.484Z,6.25
2023-03-18T13:20:30.849Z,9.82
2023-03-18T13:22:16.508Z,17.73
2023-03-18T13:24:20.306Z,16.45
2023-03-18T13:26:03.095Z,12.02
2023-03-18T13:27:47.333Z,8.45
2023-03-18T13:29:32.721Z,7.18
2023-03-18T13:31:16.668Z,4.35
2023-03-18T13:33:13.523Z,9.50
2023-03-18T13:35:07.097Z,8.73
2023-03-18T13:37:01.868Z,6.80
2023-03-18T13:39:08.493Z,7.10
2023-03-18T13:40:54.782Z,8.70
2023-03-18T13:42:30.027Z,6.28
2023-03-18T13:44:11.219Z,8.27
2023-03-18T13:45:47.915Z,10.25
2023-03-18T13:47:24.081Z,5.18
2023-03-18T13:48:58.936Z,6.10
2023-03-18T13:50:37.411Z,11.20
2023-03-18T13:52:25.383Z,29.48
2023-03-18T13:54:05.163Z,11.07
2023-03-18T13:55:47.623Z,14.38
2023-03-18T13:57:35.850Z,11.32
2023-03-18T13:59:45.477Z,11.02
2023-03-18T14:01:33.136Z,7.10
2023-03-18T14:03:16.228Z,9.82
2023-03-18T14:04:50.878Z,13.25
2023-03-18T14:06:40.027Z,13.32
2023-03-18T14:08:45.164Z,14.48
2023-03-18T14:10:20.532Z,5.82
2023-03-18T14:11:53.148Z,9.52
2023-03-18T14:13:36.447Z,7.32
2023-03-18T14:15:39.298Z,6.80
2023-03-18T14:17:25.677Z,11.63
2023-03-18T14:19:02.268Z,5.63
2023-03-18T14:20:40.789Z,5.45
2023-03-18T14:22:21.981Z,8.57
2023-03-18T14:24:11.301Z,7.55
2023-03-18T14:25:45.433Z,14.70
2023-03-18T14:27:20.610Z,11.10
2023-03-18T14:28:58.712Z,11.60
2023-03-18T14:31:00.714Z,4.13
2023-03-18T14:32:40.096Z,6.60
2023-03-18T18:51:06.773Z,33.67
2023-03-18T18:52:40.296Z,23.05
2023-03-18T18:54:14.126Z,19.42
2023-03-18T18:55:47.746Z,26.33
2023-03-18T18:57:26.923Z,21.23
2023-03-18T18:59:00.729Z,22.13
2023-03-18T19:00:34.144Z,30.08
2023-03-18T19:02:29.363Z,29.70
2023-03-18T19:04:02.921Z,35.35
2023-03-18T19:05:36.777Z,31.00
2023-03-18T19:07:12.058Z,28.95
2023-03-18T19:08:45.348Z,21.55
2023-03-18T19:10:19.597Z,24.75
2023-03-18T19:11:53.530Z,24.08
2023-03-18T19:13:30.023Z,26.90
2023-03-18T19:15:03.384Z,18.38
2023-03-18T19:16:37.484Z,26.15
2023-03-18T19:18:18.851Z,24.40
2023-03-18T19:19:53.850Z,22.70
2023-03-18T19:21:27.606Z,21.48
2023-03-18T19:23:03.208Z,21.23
2023-03-18T19:24:37.256Z,21.08
2023-03-18T19:26:14.728Z,23.95
2023-03-18T19:27:48.294Z,23.88
2023-03-18T19:29:21.846Z,17.65
2023-03-18T19:30:54.992Z,24.85
2023-03-18T19:32:28.792Z,18.35
2023-03-18T19:34:02.526Z,17.38
2023-03-18T19:35:36.574Z,19.67
2023-03-18T19:37:14.468Z,16.67
2023-03-18T19:38:49.416Z,17.63
2023-03-18T19:40:29.504Z,14.65
2023-03-18T19:42:03.354Z,14.63
2023-03-18T19:43:36.524Z,19.30
2023-03-18T19:45:14.417Z,16.77
2023-03-18T19:46:49.160Z,18.98
2023-03-18T19:48:24.883Z,16.20
2023-03-18T19:49:58.410Z,14.23
2023-03-18T19:51:31.644Z,22.13
2023-03-18T19:53:11.923Z,14.48
2023-03-18T19:54:47.655Z,22.95
2023-03-18T19:56:28.735Z,22.17
2023-03-18T19:58:02.487Z,20.55
2023-03-18T19:59:39.458Z,31.00
2023-03-18T20:01:13.149Z,35.42
2023-03-18T20:02:49.169Z,32.35
2023-03-18T20:04:28.035Z,27.48
2023-03-18T20:06:01.769Z,32.80
2023-03-18T20:07:35.079Z,28.77
2023-03-18T20:09:08.465Z,24.73
2023-03-18T20:10:44.632Z,61.78
2023-03-18T20:12:25.105Z,41.95
2023-03-18T20:13:58.550Z,35.05
2023-03-18T20:15:32.755Z,29.75
2023-03-18T20:17:28.685Z,19.88
2023-03-18T20:19:02.064Z,28.38
2023-03-18T20:20:35.595Z,19.88
2023-03-18T20:22:10.598Z,22.05
2023-03-18T20:23:43.993Z,18.23
2023-03-18T20:25:20.883Z,19.58
2023-03-18T20:26:55.418Z,24.95
2023-03-18T20:28:29.912Z,21.05
2023-03-18T20:30:03.866Z,29.98
2023-03-18T20:31:37.320Z,38.08
2023-03-18T20:33:10.864Z,35.70
2023-03-18T20:34:46.341Z,32.28
2023-03-18T20:36:20.896Z,54.08
2023-03-18T20:37:55.087Z,60.20
2023-03-18T20:39:28.242Z,63.00
2023-03-18T20:41:01.873Z,57.80
2023-03-18T20:42:36.958Z,49.35
2023-03-18T20:44:12.290Z,21.02
2023-03-18T20:45:45.866Z,27.52
2023-03-18T20:47:19.132Z,25.98
2023-03-18T20:48:53.552Z,26.65
2023-03-18T20:50:29.835Z,31.77
2023-03-18T20:52:04.644Z,18.55
2023-03-18T20:53:38.124Z,15.27
2023-03-18T20:55:25.509Z,17.80
2023-03-18T20:56:58.969Z,18.55
2023-03-18T20:58:33.550Z,20.10
2023-03-18T21:00:08.214Z,25.92
2023-03-18T21:01:41.923Z,21.13
2023-03-18T21:03:33.929Z,19.38
2023-03-18T21:05:08.034Z,21.70
2023-03-18T21:06:42.141Z,21.73
2023-03-18T21:08:15.428Z,36.88
2023-03-18T21:09:48.600Z,20.33
2023-03-18T21:11:24.434Z,26.25
2023-03-18T21:12:57.624Z,22.73
2023-03-18T21:14:32.225Z,20.70
2023-03-18T21:16:07.356Z,22.13
2023-03-18T21:17:40.511Z,16.45
2023-03-18T21:19:13.739Z,18.75
2023-03-18T21:20:47.616Z,14.55
2023-03-18T21:22:23.258Z,13.68
2023-03-18T21:23:56.800Z,17.05
2023-03-18T21:25:29.114Z,19.55
2023-03-18T21:27:05.805Z,13.65
2023-03-18T21:28:39.057Z,16.15
2023-03-18T21:30:15.098Z,17.45
2023-03-18T21:31:48.627Z,24.55
2023-03-18T21:33:24.340Z,30.00
2023-03-18T21:34:57.896Z,28.40
2023-03-18T21:36:31.015Z,25.70
2023-03-18T21:38:04.124Z,24.67
2023-03-18T21:39:37.742Z,23.13
2023-03-18T21:41:20.266Z,43.05
2023-03-18T21:42:53.929Z,41.70
2023-03-18T21:44:27.050Z,38.67
2023-03-18T21:46:02.387Z,41.13
2023-03-18T21:47:35.810Z,51.15
2023-03-18T21:49:08.960Z,46.97
2023-03-18T21:50:42.095Z,44.75
2023-03-18T21:52:19.263Z,41.17
2023-03-18T21:53:52.634Z,47.63
2023-03-18T21:55:26.007Z,56.45
2023-03-18T21:56:59.213Z,63.65
2023-03-18T21:58:32.782Z,52.83
2023-03-18T22:00:07.094Z,49.40
2023-03-18T22:01:45.100Z,37.92
2023-03-18T22:03:21.588Z,45.90
2023-03-18T22:04:55.786Z,58.75
2023-03-18T22:06:28.909Z,42.95
2023-03-18T22:08:02.133Z,49.72
2023-03-18T22:09:35.278Z,35.92
2023-03-18T22:11:15.085Z,49.47
2023-03-18T22:12:48.321Z,51.33
2023-03-18T22:14:21.581Z,71.78
2023-03-18T22:15:56.769Z,74.05
2023-03-18T22:17:33.583Z,66.50
2023-03-18T22:19:06.757Z,41.03
2023-03-18T22:20:40.965Z,42.42
2023-03-18T22:22:15.942Z,40.95
2023-03-18T22:23:49.439Z,46.83
2023-03-18T22:25:29.240Z,41.05
2023-03-18T22:27:02.416Z,27.52
2023-03-18T22:28:35.856Z,19.92
2023-03-18T22:30:12.828Z,27.05
2023-03-18T22:31:46.100Z,20.35
2023-03-18T22:33:25.154Z,18.65
2023-03-18T22:34:57.403Z,17.13
2023-03-18T22:36:30.968Z,16.02
2023-03-18T22:38:03.724Z,16.63
2023-03-18T22:39:36.856Z,20.35
2023-03-18T22:41:19.892Z,22.65
2023-03-18T22:42:54.884Z,24.65
2023-03-18T22:44:28.050Z,30.17
2023-03-18T22:46:02.998Z,25.50
2023-03-18T22:47:36.132Z,26.67
2023-03-18T22:49:11.155Z,22.95
2023-03-18T22:50:43.646Z,22.42
2023-03-18T22:52:23.098Z,26.27
2023-03-18T22:53:56.860Z,24.10
2023-03-18T22:55:36.407Z,23.45
2023-03-18T22:57:15.504Z,22.50
2023-03-18T22:58:48.695Z,29.52
2023-03-18T23:00:30.816Z,30.17
2023-03-18T23:02:04.620Z,25.33
2023-03-18T23:03:40.500Z,30.33
2023-03-18T23:05:16.884Z,21.15
2023-03-18T23:06:50.241Z,20.98
2023-03-18T23:08:24.520Z,21.67
2023-03-18T23:09:59.652Z,19.02
2023-03-18T23:11:32.793Z,18.77
2023-03-18T23:13:13.756Z,23.70
2023-03-18T23:14:47.279Z,17.67
2023-03-18T23:16:22.832Z,21.58
2023-03-18T23:17:56.122Z,24.33
2023-03-18T23:19:29.195Z,21.60
2023-03-18T23:21:04.158Z,20.63
2023-03-18T23:22:37.599Z,26.90
2023-03-18T23:24:11.131Z,20.27
2023-03-18T23:25:46.727Z,19.52
2023-03-18T23:27:19.580Z,24.13
2023-03-18T23:28:52.711Z,31.20
2023-03-18T23:30:25.932Z,38.08
2023-03-18T23:31:59.053Z,22.55
2023-03-18T23:33:32.500Z,29.25
2023-03-18T23:35:07.272Z,31.15
2023-03-18T23:36:42.015Z,59.70
2023-03-18T23:38:15.502Z,47.30
2023-03-18T23:39:49.146Z,51.08
2023-03-18T23:41:22.356Z,41.50
2023-03-18T23:42:55.574Z,43.38
2023-03-18T23:44:29.292Z,46.35
2023-03-18T23:46:04.055Z,43.10
2023-03-18T23:47:37.246Z,35.05
2023-03-18T23:49:09.399Z,35.85
2023-03-18T23:50:42.868Z,37.47
2023-03-18T23:52:17.886Z,48.90
2023-03-18T23:53:51.331Z,49.80
2023-03-18T23:55:34.136Z,48.38
2023-03-18T23:57:10.259Z,45.22
2023-03-18T23:58:43.475Z,38.63
